Time;durP1;ratioP1;P1;durP2;ratioP2;P2;SDS_P1;SDS_P2;PMS_P1;PMS_P2;Temp;Humidity;BMP_temperature;BMP_pressure;BME280_temperature;BME280_humidity;BME280_pressure;Samples;Min_cycle;Max_cycle;Signal;HPM_P1;HPM_P2
2023/02/17 00:00:02;;;;;;;99.10;42.00;;;;;;;3.88;100.00;99348.48;67775;1279;1016331;-61
2023/02/17 00:03:04;;;;;;;102.50;43.40;;;;;;;3.89;100.00;99346.88;67717;1279;1016173;-61
2023/02/17 00:06:07;;;;;;;104.40;44.50;;;;;;;3.92;100.00;99347.16;67751;1279;1016611;-61
2023/02/17 00:09:09;;;;;;;102.60;44.20;;;;;;;4.01;100.00;99344.86;67752;1279;1016286;-61
2023/02/17 00:12:12;;;;;;;99.20;42.60;;;;;;;3.96;100.00;99345.67;67788;1279;1016166;-61
2023/02/17 00:15:14;;;;;;;103.00;44.50;;;;;;;3.95;100.00;99348.63;67734;1279;1016441;-61
2023/02/17 00:18:17;;;;;;;102.70;44.60;;;;;;;4.06;100.00;99343.34;67757;1279;1016320;-61
2023/02/17 00:21:19;;;;;;;105.20;44.20;;;;;;;4.08;100.00;99339.98;67763;1279;1016433;-61
2023/02/17 00:24:22;;;;;;;103.00;42.00;;;;;;;4.01;100.00;99336.55;67771;1279;1016107;-61
2023/02/17 00:27:24;;;;;;;95.70;43.20;;;;;;;4.08;100.00;99333.60;67743;1279;1016337;-61
2023/02/17 00:30:26;;;;;;;97.10;42.00;;;;;;;4.15;100.00;99330.82;67744;1279;1017194;-61
2023/02/17 00:33:29;;;;;;;93.80;41.70;;;;;;;3.97;100.00;99331.46;67734;1279;1016484;-61
2023/02/17 00:36:32;;;;;;;;;;;;;;;3.93;100.00;99328.43;67793;1279;1016492;-61
2023/02/17 00:39:34;;;;;;;99.70;41.30;;;;;;;4.04;100.00;99322.62;67791;1279;1016483;-61
2023/02/17 00:42:36;;;;;;;105.00;43.40;;;;;;;4.10;100.00;99322.29;67746;1279;1016285;-61
2023/02/17 00:45:39;;;;;;;103.40;44.20;;;;;;;4.10;100.00;99319.53;67761;1279;1016498;-61
2023/02/17 00:48:42;;;;;;;99.20;43.10;;;;;;;4.10;100.00;99317.26;67786;1279;1016055;-61
2023/02/17 00:51:44;;;;;;;105.40;43.40;;;;;;;4.05;100.00;99311.02;67745;1279;1016621;-61
2023/02/17 00:54:47;;;;;;;99.10;42.20;;;;;;;4.09;100.00;99305.69;67743;1279;1016472;-61
2023/02/17 00:57:49;;;;;;;97.70;41.40;;;;;;;4.12;100.00;99300.77;67777;1279;1016482;-62
2023/02/17 01:00:52;;;;;;;98.40;42.70;;;;;;;4.18;100.00;99294.92;67782;1279;1016479;-61
2023/02/17 01:03:54;;;;;;;91.10;40.40;;;;;;;4.18;100.00;99289.36;67802;1279;1016563;-62
2023/02/17 01:06:57;;;;;;;99.60;41.60;;;;;;;4.25;100.00;99278.27;67772;1279;1016434;-62
2023/02/17 01:09:59;;;;;;;96.90;41.70;;;;;;;4.41;100.00;99276.44;67712;1279;1016273;-61
2023/02/17 01:13:01;;;;;;;97.10;40.80;;;;;;;4.48;100.00;99272.42;67740;1279;1016124;-61
2023/02/17 01:16:04;;;;;;;93.00;40.80;;;;;;;4.48;100.00;99268.45;67740;1279;1016388;-59
2023/02/17 01:19:06;;;;;;;93.70;39.80;;;;;;;4.41;100.00;99273.50;67767;1279;1016188;-60
2023/02/17 01:22:09;;;;;;;96.90;40.50;;;;;;;4.38;100.00;99272.55;67731;1257;1016266;-61
2023/02/17 01:25:11;;;;;;;101.40;42.20;;;;;;;4.40;100.00;99271.96;67690;1279;1018914;-60
2023/02/17 01:28:14;;;;;;;93.60;39.40;;;;;;;4.38;100.00;99273.59;67714;1279;1016481;-61
2023/02/17 01:31:16;;;;;;;95.20;39.60;;;;;;;4.38;100.00;99269.09;67795;1279;1016917;-60
2023/02/17 01:34:19;;;;;;;97.90;41.90;;;;;;;4.39;100.00;99261.77;67804;1279;1016490;-59
2023/02/17 01:37:21;;;;;;;98.90;41.90;;;;;;;4.35;100.00;99261.89;67739;1279;1016437;-61
2023/02/17 01:40:23;;;;;;;91.60;39.20;;;;;;;4.38;100.00;99261.95;67744;1279;1016534;-61
2023/02/17 01:43:26;;;;;;;94.70;41.10;;;;;;;4.46;100.00;99265.55;67740;1279;1016449;-60
2023/02/17 01:46:28;;;;;;;97.20;41.00;;;;;;;4.52;100.00;99262.26;67752;1279;1015964;-61
2023/02/17 01:49:31;;;;;;;91.80;39.50;;;;;;;4.56;100.00;99264.92;67780;1279;1016463;-61
2023/02/17 01:52:33;;;;;;;94.60;39.60;;;;;;;4.44;100.00;99261.98;67745;1279;1016320;-60
2023/02/17 01:55:36;;;;;;;99.00;43.50;;;;;;;4.43;100.00;99260.11;67707;1280;1016481;-61
2023/02/17 01:58:38;;;;;;;103.80;42.00;;;;;;;4.48;100.00;99259.25;67765;1279;1015745;-62
2023/02/17 02:01:41;;;;;;;95.80;42.90;;;;;;;4.49;100.00;99264.96;67760;1279;1015962;-60
2023/02/17 02:04:43;;;;;;;;;;;;;;;4.54;100.00;99268.95;67725;1279;1016103;-61
2023/02/17 02:07:46;;;;;;;94.80;42.00;;;;;;;4.41;100.00;99272.45;67731;1279;1016499;-61
2023/02/17 02:10:48;;;;;;;94.70;41.00;;;;;;;4.46;100.00;99270.59;67719;1279;1016382;-61
2023/02/17 02:13:51;;;;;;;98.60;41.40;;;;;;;4.49;100.00;99268.92;67797;1279;1018044;-61
2023/02/17 02:16:53;;;;;;;95.20;40.00;;;;;;;4.47;100.00;99263.80;67784;1279;1016340;-61
2023/02/17 02:19:56;;;;;;;91.60;40.10;;;;;;;4.43;100.00;99259.60;67728;1279;1017975;-61
2023/02/17 02:22:58;;;;;;;;;;;;;;;4.47;100.00;99250.81;67728;1279;1016356;-61
2023/02/17 02:26:00;;;;;;;91.60;39.50;;;;;;;4.47;100.00;99245.42;67791;1279;1016398;-61
2023/02/17 02:29:03;;;;;;;94.10;41.00;;;;;;;4.49;100.00;99242.94;67778;1279;1016431;-61
2023/02/17 02:32:05;;;;;;;95.40;40.60;;;;;;;4.62;100.00;99241.55;67741;1279;1015952;-61
2023/02/17 02:35:08;;;;;;;85.10;38.60;;;;;;;4.62;100.00;99237.89;67732;1279;1016372;-61
2023/02/17 02:38:10;;;;;;;93.90;38.90;;;;;;;4.77;100.00;99236.23;67748;1279;1016191;-61
2023/02/17 02:41:13;;;;;;;90.20;38.60;;;;;;;4.84;100.00;99236.04;67789;1279;1016434;-62
2023/02/17 02:44:15;;;;;;;90.80;39.70;;;;;;;4.83;100.00;99233.95;65232;1278;6382161;-62
2023/02/17 02:47:18;;;;;;;92.10;40.80;;;;;;;4.85;100.00;99229.56;67727;1279;1016516;-61
2023/02/17 02:50:20;;;;;;;91.10;41.40;;;;;;;4.83;100.00;99225.63;67719;1279;1016458;-61
2023/02/17 02:53:23;;;;;;;94.40;40.30;;;;;;;4.93;100.00;99223.97;67777;1279;1016493;-61
2023/02/17 02:56:25;;;;;;;94.50;39.80;;;;;;;4.97;100.00;99223.66;67757;1279;1015877;-61
2023/02/17 02:59:28;;;;;;;87.50;39.40;;;;;;;4.95;100.00;99224.94;67759;1279;1016435;-61
2023/02/17 03:02:30;;;;;;;;;;;;;;;4.95;100.00;99223.88;67734;1279;1016713;-61
2023/02/17 03:05:33;;;;;;;93.70;39.20;;;;;;;4.90;100.00;99225.96;67718;1279;1016286;-61
2023/02/17 03:08:36;;;;;;;97.80;40.10;;;;;;;4.90;100.00;99227.86;67722;1279;1016265;-62
2023/02/17 03:11:38;;;;;;;98.60;41.30;;;;;;;5.02;100.00;99227.83;67708;1279;1016402;-61
2023/02/17 03:14:41;;;;;;;93.00;39.50;;;;;;;4.92;100.00;99223.11;67724;1279;1016312;-61
2023/02/17 03:17:43;;;;;;;92.50;39.70;;;;;;;5.02;100.00;99223.70;67768;1279;1016577;-61
2023/02/17 03:20:46;;;;;;;93.20;40.10;;;;;;;5.00;100.00;99222.69;67774;1279;1016367;-61
2023/02/17 03:23:48;;;;;;;86.80;39.40;;;;;;;5.06;100.00;99226.66;67740;1279;1016374;-61
2023/02/17 03:26:51;;;;;;;90.40;38.90;;;;;;;5.19;100.00;99226.42;67779;1279;1016261;-61
2023/02/17 03:29:53;;;;;;;86.90;38.10;;;;;;;5.19;100.00;99224.85;67772;1279;1019005;-61
2023/02/17 03:32:56;;;;;;;90.20;39.10;;;;;;;5.23;100.00;99219.18;67779;1279;1016446;-61
2023/02/17 03:35:58;;;;;;;85.70;38.50;;;;;;;5.32;100.00;99212.99;67723;1279;1016386;-61
2023/02/17 03:39:00;;;;;;;93.60;39.00;;;;;;;5.38;100.00;99221.46;67700;1279;1016393;-61
2023/02/17 03:42:03;;;;;;;85.90;38.10;;;;;;;5.28;100.00;99229.41;67754;1279;1016557;-61
2023/02/17 03:45:05;;;;;;;86.30;37.40;;;;;;;5.25;100.00;99232.84;67781;1279;1016455;-61
2023/02/17 03:48:08;;;;;;;92.80;39.00;;;;;;;5.22;100.00;99234.13;67779;1279;1016382;-61
2023/02/17 03:51:11;;;;;;;90.60;37.90;;;;;;;5.17;100.00;99234.61;67704;1279;1016336;-61
2023/02/17 03:54:13;;;;;;;;;;;;;;;5.20;100.00;99231.58;67742;1279;1016414;-61
2023/02/17 03:57:16;;;;;;;130.30;56.10;;;;;;;5.20;100.00;99228.82;67793;1279;1016454;-61
2023/02/17 04:00:18;;;;;;;94.80;43.20;;;;;;;5.20;100.00;99227.41;67758;1279;1016094;-61
2023/02/17 04:03:21;;;;;;;86.50;36.70;;;;;;;5.24;100.00;99222.63;67723;1279;1016078;-61
2023/02/17 04:06:23;;;;;;;84.50;36.90;;;;;;;5.28;100.00;99222.15;67698;1279;1015907;-61
2023/02/17 04:09:26;;;;;;;88.50;36.90;;;;;;;5.38;100.00;99219.02;67742;1256;1016432;-61
2023/02/17 04:12:28;;;;;;;85.60;35.90;;;;;;;5.32;100.00;99217.52;67768;1279;1016330;-61
2023/02/17 04:15:31;;;;;;;83.30;37.20;;;;;;;5.40;100.00;99217.58;67724;1279;1016444;-61
2023/02/17 04:18:33;;;;;;;86.10;36.80;;;;;;;5.46;100.00;99215.30;67749;1279;1016465;-61
2023/02/17 04:21:36;;;;;;;85.30;35.90;;;;;;;5.53;100.00;99216.62;67742;1279;1016472;-61
2023/02/17 04:24:38;;;;;;;85.00;37.00;;;;;;;5.54;100.00;99211.36;67764;1279;1016472;-61
2023/02/17 04:27:40;;;;;;;80.70;34.70;;;;;;;5.63;100.00;99207.80;67771;1279;1016319;-61
2023/02/17 04:30:43;;;;;;;85.50;36.50;;;;;;;5.72;100.00;99208.49;67703;1279;1017139;-61
2023/02/17 04:33:45;;;;;;;81.60;36.50;;;;;;;5.78;100.00;99205.02;67671;1279;1018917;-61
2023/02/17 04:36:48;;;;;;;88.30;36.60;;;;;;;5.63;100.00;99206.39;67759;1279;1016426;-61
2023/02/17 04:39:50;;;;;;;82.80;35.90;;;;;;;5.65;100.00;99200.08;67728;1279;1016392;-61
2023/02/17 04:42:53;;;;;;;84.50;36.20;;;;;;;5.77;100.00;99195.16;67729;1279;1016351;-61
2023/02/17 04:45:55;;;;;;;82.90;36.00;;;;;;;5.75;100.00;99191.05;67694;1279;1016367;-61
2023/02/17 04:48:58;;;;;;;84.20;35.30;;;;;;;5.77;100.00;99187.33;67719;1279;1016350;-61
2023/02/17 04:52:00;;;;;;;82.90;35.90;;;;;;;5.76;100.00;99185.30;67748;1279;1016417;-60
2023/02/17 04:55:02;;;;;;;87.20;35.70;;;;;;;5.78;100.00;99182.10;67775;1279;1016507;-61
2023/02/17 04:58:05;;;;;;;80.80;35.30;;;;;;;5.86;100.00;99179.20;67775;1279;1016098;-61
2023/02/17 05:01:07;;;;;;;82.20;36.10;;;;;;;5.95;100.00;99173.87;67714;1279;1016380;-61
2023/02/17 05:04:10;;;;;;;;;;;;;;;6.02;100.00;99172.41;67770;1279;1016019;-61
2023/02/17 05:07:12;;;;;;;83.30;35.00;;;;;;;6.09;100.00;99166.08;67794;1279;1018293;-61
2023/02/17 05:10:15;;;;;;;80.30;35.30;;;;;;;6.08;100.00;99169.05;67778;1279;1016176;-60
2023/02/17 05:13:19;;;;;;;80.80;36.00;;;;;;;6.08;100.00;99164.39;67759;1279;1016469;-61
2023/02/17 05:16:21;;;;;;;79.30;35.10;;;;;;;6.08;100.00;99166.30;67741;1279;1016905;-61
2023/02/17 05:19:24;;;;;;;;;;;;;;;5.93;100.00;99166.30;67731;1279;1016479;-61
2023/02/17 05:22:26;;;;;;;88.90;36.20;;;;;;;6.05;100.00;99160.31;67744;1279;1016372;-61
2023/02/17 05:25:29;;;;;;;79.20;34.20;;;;;;;6.10;100.00;99157.88;67794;1279;1016518;-61
2023/02/17 05:28:31;;;;;;;89.20;35.90;;;;;;;6.00;100.00;99160.14;67755;1279;1016066;-61
2023/02/17 05:31:33;;;;;;;83.10;35.40;;;;;;;5.91;100.00;99158.73;67736;1279;1016174;-61
2023/02/17 05:34:36;;;;;;;78.20;34.40;;;;;;;5.82;100.00;99158.16;67747;1279;1018201;-62
2023/02/17 05:37:38;;;;;;;89.20;37.30;;;;;;;5.81;100.00;99153.18;67786;1279;1016453;-61
2023/02/17 05:40:41;;;;;;;84.30;35.00;;;;;;;5.85;100.00;99153.20;67778;1279;1016274;-61
2023/02/17 05:43:43;;;;;;;79.70;34.40;;;;;;;5.81;100.00;99150.04;67737;1279;1016200;-61
2023/02/17 05:46:46;;;;;;;96.30;41.30;;;;;;;5.87;100.00;99142.71;67750;1279;1015874;-61
2023/02/17 05:49:48;;;;;;;;;;;;;;;5.87;100.00;99139.62;67805;1279;1018016;-59
2023/02/17 05:52:51;;;;;;;92.80;42.30;;;;;;;5.84;100.00;99131.53;67775;1279;1016461;-61
2023/02/17 05:55:53;;;;;;;80.70;37.40;;;;;;;5.89;100.00;99129.80;67730;1279;1016508;-61
2023/02/17 05:58:56;;;;;;;80.00;36.60;;;;;;;5.90;100.00;99123.38;67729;1279;1016809;-61
2023/02/17 06:01:58;;;;;;;86.00;38.40;;;;;;;5.97;100.00;99120.35;67796;1279;1016373;-61
2023/02/17 06:05:01;;;;;;;81.70;35.60;;;;;;;5.99;100.00;99118.20;67782;1279;1016364;-60
2023/02/17 06:08:03;;;;;;;76.90;32.60;;;;;;;6.06;100.00;99116.52;67746;1279;1020310;-61
2023/02/17 06:11:06;;;;;;;78.60;32.90;;;;;;;6.10;100.00;99117.77;67738;1279;1016655;-61
2023/02/17 06:14:08;;;;;;;71.00;31.30;;;;;;;6.16;100.00;99124.70;67776;1279;1016484;-60
2023/02/17 06:17:11;;;;;;;74.10;31.40;;;;;;;6.15;100.00;99134.96;67785;1279;1016292;-60
2023/02/17 06:20:13;;;;;;;70.80;30.70;;;;;;;6.08;100.00;99129.67;67767;1279;1016333;-61
2023/02/17 06:23:16;;;;;;;79.10;32.40;;;;;;;6.07;100.00;99126.55;67729;1279;1016034;-60
2023/02/17 06:26:18;;;;;;;;;;;;;;;6.01;100.00;99127.99;67800;1279;1016875;-60
2023/02/17 06:29:21;;;;;;;72.30;31.80;;;;;;;6.01;100.00;99126.79;67780;1279;1016424;-61
2023/02/17 06:32:23;;;;;;;70.70;30.80;;;;;;;6.07;100.00;99126.05;67769;1279;1018609;-61
2023/02/17 06:35:25;;;;;;;74.90;33.20;;;;;;;6.15;100.00;99133.55;67730;1279;1019153;-61
2023/02/17 06:38:28;;;;;;;75.80;34.00;;;;;;;6.35;100.00;99135.92;67709;1279;1016415;-61
2023/02/17 06:41:30;;;;;;;72.70;32.80;;;;;;;6.42;100.00;99135.16;67736;1279;1016577;-61
2023/02/17 06:44:33;;;;;;;70.40;31.50;;;;;;;6.48;100.00;99142.37;67775;1279;1016396;-61
2023/02/17 06:47:35;;;;;;;66.70;30.80;;;;;;;6.63;100.00;99135.53;67784;1279;1016438;-61
2023/02/17 06:50:38;;;;;;;77.60;34.00;;;;;;;6.70;100.00;99128.15;67732;1279;1016334;-61
2023/02/17 06:53:40;;;;;;;75.10;32.60;;;;;;;6.81;100.00;99131.16;67718;1279;1016440;-61
2023/02/17 06:56:43;;;;;;;78.80;32.10;;;;;;;6.92;100.00;99137.33;67787;1279;1017640;-61
2023/02/17 06:59:45;;;;;;;68.80;30.40;;;;;;;6.97;100.00;99133.84;67791;1279;1016349;-61
2023/02/17 07:02:48;;;;;;;70.50;31.60;;;;;;;6.99;100.00;99130.45;67750;1279;1016361;-61
2023/02/17 07:05:51;;;;;;;79.40;32.40;;;;;;;7.08;100.00;99123.60;67741;1279;1016831;-61
2023/02/17 07:08:53;;;;;;;72.30;33.10;;;;;;;7.16;100.00;99120.52;67817;1279;1015749;-60
2023/02/17 07:11:56;;;;;;;69.60;31.80;;;;;;;7.21;100.00;99116.30;67734;1279;1016684;-61
2023/02/17 07:14:58;;;;;;;;;;;;;;;7.33;100.00;99112.30;67751;1279;1015668;-61
2023/02/17 07:18:01;;;;;;;74.10;31.80;;;;;;;7.47;100.00;99109.81;67741;1279;1019177;-61
2023/02/17 07:21:03;;;;;;;75.50;32.70;;;;;;;7.67;100.00;99114.84;67808;1279;1016446;-61
2023/02/17 07:24:06;;;;;;;72.20;32.40;;;;;;;7.83;100.00;99108.36;67756;1279;1016581;-61
2023/02/17 07:27:08;;;;;;;77.30;32.70;;;;;;;7.81;100.00;99099.61;67711;1279;1016643;-61
2023/02/17 07:30:11;;;;;;;74.40;32.00;;;;;;;7.77;100.00;99095.94;67757;1279;1016431;-61
2023/02/17 07:33:13;;;;;;;71.20;31.50;;;;;;;7.67;100.00;99095.33;67818;1279;1016022;-60
2023/02/17 07:36:16;;;;;;;70.80;30.50;;;;;;;7.72;100.00;99095.65;67764;1279;1016500;-60
2023/02/17 07:39:18;;;;;;;76.20;33.90;;;;;;;7.82;100.00;99097.27;67738;1279;1016055;-61
2023/02/17 07:42:21;;;;;;;72.70;33.30;;;;;;;7.87;100.00;99090.98;67736;1279;1016246;-61
2023/02/17 07:45:23;;;;;;;70.00;32.00;;;;;;;7.97;100.00;99083.73;67769;1279;1016431;-61
2023/02/17 07:48:26;;;;;;;;;;;;;;;7.95;100.00;99086.59;67778;1279;1016501;-60
2023/02/17 07:51:28;;;;;;;70.70;30.80;;;;;;;8.02;100.00;99092.01;67732;1279;1016479;-61
2023/02/17 07:54:31;;;;;;;68.90;29.40;;;;;;;8.01;100.00;99095.73;67715;1279;1016428;-61
2023/02/17 07:57:33;;;;;;;;;;;;;;;8.07;100.00;99095.45;67782;1279;1016105;-61
2023/02/17 08:00:36;;;;;;;69.10;31.20;;;;;;;8.19;100.00;99087.77;67790;1279;1016513;-61
2023/02/17 08:03:38;;;;;;;61.20;26.90;;;;;;;8.14;100.00;99085.71;67700;1279;1016293;-60
2023/02/17 08:06:41;;;;;;;66.40;29.60;;;;;;;8.09;100.00;99088.02;67697;1279;1016517;-60
2023/02/17 08:13:19;;;;;;;81.90;33.60;;;;;;;8.26;100.00;99085.84;67771;1279;1016920;-61
2023/02/17 08:16:21;;;;;;;82.80;34.00;;;;;;;8.55;100.00;99082.95;67789;1279;1016179;-61
2023/02/17 08:19:24;;;;;;;80.90;35.50;;;;;;;8.70;100.00;99083.43;67784;1279;1017147;-61
2023/02/17 08:22:27;;;;;;;81.00;35.20;;;;;;;8.96;100.00;99082.64;67753;1279;1016337;-61
2023/02/17 08:25:29;;;;;;;75.10;34.50;;;;;;;9.20;100.00;99084.23;67784;1279;1018964;-61
2023/02/17 08:28:32;;;;;;;59.60;29.60;;;;;;;9.36;100.00;99082.73;67731;1279;1016677;-62
2023/02/17 08:31:35;;;;;;;;;;;;;;;9.49;100.00;99082.27;67729;1279;1016279;-61
2023/02/17 08:34:37;;;;;;;65.90;29.50;;;;;;;9.65;100.00;99077.40;67780;1279;1016463;-61
2023/02/17 08:37:39;;;;;;;60.70;28.20;;;;;;;9.76;100.00;99071.39;67800;1279;1016440;-61
2023/02/17 08:40:42;;;;;;;58.20;27.50;;;;;;;10.04;100.00;99067.45;67758;1279;1015964;-61
2023/02/17 08:43:45;;;;;;;58.70;27.50;;;;;;;10.33;100.00;99069.70;67734;1279;1016475;-61
2023/02/17 08:46:47;;;;;;;;;;;;;;;10.45;100.00;99066.24;67776;1279;1016383;-61
2023/02/17 08:49:50;;;;;;;58.30;26.70;;;;;;;10.42;100.00;99064.52;67786;1279;1016056;-61
2023/02/17 08:52:52;;;;;;;56.30;27.40;;;;;;;10.39;100.00;99058.54;67767;1279;1016450;-61
2023/02/17 08:55:54;;;;;;;63.50;27.80;;;;;;;10.43;100.00;99053.77;67740;1279;1016181;-61
2023/02/17 08:58:57;;;;;;;55.80;26.60;;;;;;;10.54;100.00;99043.39;67778;1279;1016193;-61
2023/02/17 09:02:00;;;;;;;57.60;26.50;;;;;;;10.56;100.00;99043.95;67755;1279;1016381;-60
2023/02/17 09:05:02;;;;;;;54.70;26.70;;;;;;;10.54;100.00;99037.94;67739;1279;1016462;-61
2023/02/17 09:08:05;;;;;;;60.30;27.80;;;;;;;10.67;99.93;99038.76;67729;1279;1016399;-61
2023/02/17 09:11:08;;;;;;;58.80;27.10;;;;;;;10.73;99.90;99034.91;67757;1279;1016318;-61
2023/02/17 09:14:10;;;;;;;55.40;26.10;;;;;;;10.72;100.00;99029.36;67746;1279;1016267;-61
2023/02/17 09:17:13;;;;;;;;;;;;;;;10.73;99.76;99025.98;67752;1279;1016588;-61
2023/02/17 09:20:18;;;;;;;56.50;25.10;;;;;;;10.61;99.24;99025.64;67749;1279;1016446;-61
2023/02/17 09:23:20;;;;;;;52.80;24.30;;;;;;;10.50;99.90;99015.79;67759;1279;1016762;-61
2023/02/17 09:26:23;;;;;;;56.90;24.60;;;;;;;10.48;99.76;99018.90;67736;1279;1016403;-61
2023/02/17 09:29:26;;;;;;;50.00;23.90;;;;;;;10.45;99.62;99027.79;67710;1279;1016488;-61
2023/02/17 09:32:28;;;;;;;51.90;25.30;;;;;;;10.37;100.00;99035.06;67766;1279;1018514;-62
2023/02/17 09:35:31;;;;;;;57.90;25.20;;;;;;;10.34;100.00;99038.20;67782;1279;1016485;-61
2023/02/17 09:38:34;;;;;;;53.50;24.90;;;;;;;10.20;100.00;99037.21;67766;1279;1016464;-61
2023/02/17 09:41:38;;;;;;;56.10;25.60;;;;;;;10.21;100.00;99037.17;67731;1279;1016421;-61
2023/02/17 09:44:40;;;;;;;54.70;24.90;;;;;;;10.38;100.00;99033.23;67754;1279;1016349;-62
2023/02/17 09:47:43;;;;;;;52.00;25.50;;;;;;;10.42;100.00;99037.39;67789;1279;1016558;-61
2023/02/17 09:50:45;;;;;;;53.90;23.70;;;;;;;10.47;100.00;99035.01;67692;1279;1015906;-62
2023/02/17 09:53:48;;;;;;;56.20;25.60;;;;;;;10.33;100.00;99033.67;67777;1279;1016833;-62
2023/02/17 09:56:50;;;;;;;52.90;26.10;;;;;;;10.25;100.00;99034.98;67776;1279;1016459;-61
2023/02/17 09:59:53;;;;;;;62.10;27.10;;;;;;;10.25;100.00;99028.89;67753;1279;1016349;-61
2023/02/17 10:02:56;;;;;;;61.00;29.00;;;;;;;10.36;100.00;99026.52;67724;1279;1016390;-61
2023/02/17 10:05:59;;;;;;;53.70;26.10;;;;;;;10.55;100.00;99024.95;67766;1279;1016412;-61
2023/02/17 10:09:01;;;;;;;54.00;25.90;;;;;;;10.63;100.00;99026.95;67754;1279;1016167;-61
2023/02/17 10:12:04;;;;;;;55.70;26.50;;;;;;;10.73;100.00;99027.76;67729;1279;1016371;-61
2023/02/17 10:15:06;;;;;;;58.70;28.60;;;;;;;10.71;100.00;99024.05;67708;1279;1017118;-61
2023/02/17 10:18:09;;;;;;;;;;;;;;;10.68;100.00;99022.27;67768;1279;1016695;-61
2023/02/17 10:21:11;;;;;;;56.40;26.60;;;;;;;10.62;100.00;99015.26;67743;1279;1016497;-61
2023/02/17 10:24:14;;;;;;;53.10;24.80;;;;;;;10.57;100.00;99015.39;67741;1279;1016228;-61
2023/02/17 10:27:16;;;;;;;52.70;24.70;;;;;;;10.53;100.00;99012.81;67716;1279;1016128;-61
2023/02/17 10:30:19;;;;;;;58.10;27.10;;;;;;;10.56;100.00;99006.16;67774;1279;1016474;-61
2023/02/17 10:33:22;;;;;;;56.20;26.10;;;;;;;10.56;100.00;98992.50;67758;1279;1016543;-62
2023/02/17 10:36:24;;;;;;;55.00;27.40;;;;;;;10.50;100.00;98991.85;67707;1279;1016342;-61
2023/02/17 10:39:27;;;;;;;57.60;26.30;;;;;;;10.53;100.00;98983.95;67754;1279;1018530;-61
2023/02/17 10:42:30;;;;;;;55.80;27.40;;;;;;;10.43;100.00;98971.23;67782;1279;1016464;-61
2023/02/17 10:45:33;;;;;;;59.40;26.50;;;;;;;10.35;100.00;98973.47;67728;1279;1018524;-62
2023/02/17 10:48:35;;;;;;;59.60;28.50;;;;;;;10.31;100.00;98965.95;67779;1279;1015842;-61
2023/02/17 10:51:38;;;;;;;56.50;25.90;;;;;;;10.35;100.00;98964.52;67773;1279;1016218;-61
2023/02/17 10:54:40;;;;;;;;;;;;;;;10.23;100.00;98965.03;67743;1279;1016094;-61
2023/02/17 10:57:43;;;;;;;55.70;26.50;;;;;;;10.17;100.00;98961.88;67734;1279;1016428;-61
2023/02/17 11:00:45;;;;;;;55.80;27.00;;;;;;;10.16;100.00;98951.08;67746;1279;1016081;-61
2023/02/17 11:03:48;;;;;;;56.30;25.20;;;;;;;10.14;100.00;98942.84;67782;1279;1016295;-62
2023/02/17 11:06:50;;;;;;;59.60;27.40;;;;;;;10.11;100.00;98940.36;67690;1279;1016129;-62
2023/02/17 11:09:53;;;;;;;;;;;;;;;10.24;100.00;98928.97;67775;1279;1016480;-62
2023/02/17 11:12:57;;;;;;;57.60;26.70;;;;;;;10.34;100.00;98915.84;67758;1279;1016200;-61
2023/02/17 11:16:00;;;;;;;55.40;25.60;;;;;;;10.36;100.00;98910.45;67781;1279;1016418;-62
2023/02/17 11:19:03;;;;;;;55.90;26.70;;;;;;;10.52;100.00;98904.31;67715;1279;1015554;-62
2023/02/17 11:22:05;;;;;;;53.40;26.50;;;;;;;10.68;100.00;98900.73;67763;1279;1016290;-62
2023/02/17 11:25:08;;;;;;;51.90;25.10;;;;;;;10.67;100.00;98896.60;67756;1279;1017977;-62
2023/02/17 11:28:10;;;;;;;53.20;25.10;;;;;;;10.62;100.00;98885.88;67717;1279;1017148;-61
2023/02/17 11:31:13;;;;;;;51.80;24.80;;;;;;;10.64;100.00;98876.27;67706;1279;1016490;-60
2023/02/17 11:34:15;;;;;;;;;;;;;;;10.75;100.00;98872.00;67818;1279;1016686;-61
2023/02/17 11:37:18;;;;;;;58.80;26.30;;;;;;;10.78;100.00;98865.30;67806;1279;1016463;-61
2023/02/17 11:40:20;;;;;;;55.50;25.70;;;;;;;10.88;100.00;98859.96;67735;1279;1016430;-61
2023/02/17 11:43:23;;;;;;;58.00;26.80;;;;;;;10.76;100.00;98848.80;67743;1279;1016548;-61
2023/02/17 11:46:26;;;;;;;53.10;23.50;;;;;;;10.79;100.00;98844.27;67755;1279;1016031;-61
2023/02/17 11:49:29;;;;;;;55.30;25.40;;;;;;;10.77;100.00;98838.79;67722;1279;1016378;-61
2023/02/17 11:52:31;;;;;;;53.80;25.30;;;;;;;10.88;100.00;98840.58;67773;1279;1017153;-61
2023/02/17 11:55:34;;;;;;;;;;;;;;;10.99;100.00;98840.21;67730;1279;1016693;-61
2023/02/17 11:58:37;;;;;;;54.60;24.60;;;;;;;11.01;100.00;98843.11;67727;1279;1016325;-61
2023/02/17 12:01:39;;;;;;;53.60;23.50;;;;;;;11.04;100.00;98836.62;67768;1279;1017208;-61
2023/02/17 12:04:42;;;;;;;50.40;24.30;;;;;;;11.05;100.00;98829.52;67800;1279;1016469;-61
2023/02/17 12:07:45;;;;;;;52.90;23.20;;;;;;;11.01;100.00;98833.99;67775;1279;1016437;-61
2023/02/17 12:10:47;;;;;;;52.20;23.00;;;;;;;10.91;100.00;98833.89;67768;1280;1016620;-62
2023/02/17 12:13:50;;;;;;;50.50;23.70;;;;;;;10.89;100.00;98822.16;67777;1280;1016290;-62
2023/02/17 12:16:52;;;;;;;46.10;20.90;;;;;;;10.80;100.00;98823.61;67778;1280;1015915;-62
2023/02/17 12:19:57;;;;;;;46.30;21.10;;;;;;;10.73;100.00;98813.30;67736;1280;1015873;-61
2023/02/17 12:22:59;;;;;;;53.50;23.60;;;;;;;10.72;100.00;98803.08;67754;1280;1016498;-61
2023/02/17 12:26:02;;;;;;;49.60;22.70;;;;;;;10.78;100.00;98801.85;67779;1280;1016224;-62
2023/02/17 12:29:04;;;;;;;45.50;20.90;;;;;;;10.85;100.00;98789.82;67755;1280;1017830;-62
2023/02/17 12:32:07;;;;;;;47.30;21.10;;;;;;;10.92;100.00;98786.98;67756;1280;1016592;-62
2023/02/17 12:35:09;;;;;;;42.40;18.40;;;;;;;10.68;100.00;98781.31;67704;1280;1016488;-62
2023/02/17 12:38:12;;;;;;;42.10;19.60;;;;;;;10.48;100.00;98783.92;67802;1280;1017561;-62
2023/02/17 12:41:14;;;;;;;41.40;18.70;;;;;;;10.27;100.00;98780.80;67783;1280;1016777;-62
2023/02/17 12:44:16;;;;;;;42.40;18.80;;;;;;;10.26;100.00;98769.13;67780;1280;1016422;-61
2023/02/17 12:47:19;;;;;;;44.40;20.60;;;;;;;10.27;100.00;98767.48;67699;1280;1015857;-61
2023/02/17 12:50:21;;;;;;;45.80;21.30;;;;;;;10.20;100.00;98765.66;67712;1280;1016410;-61
2023/02/17 12:53:24;;;;;;;47.30;22.80;;;;;;;10.20;100.00;98763.21;67750;1280;1016415;-61
2023/02/17 12:56:27;;;;;;;46.20;19.90;;;;;;;10.23;100.00;98766.50;67749;1280;1016134;-62
2023/02/17 12:59:29;;;;;;;45.40;20.10;;;;;;;10.11;100.00;98760.08;67727;1280;1016482;-61
2023/02/17 13:02:32;;;;;;;43.70;20.00;;;;;;;10.06;100.00;98746.56;67753;1280;1016665;-62
2023/02/17 13:05:34;;;;;;;;;;;;;;;9.95;100.00;98738.48;67751;1280;1016499;-61
2023/02/17 13:08:37;;;;;;;50.20;19.60;;;;;;;10.08;100.00;98730.88;67774;1279;1016459;-62
2023/02/17 13:11:40;;;;;;;44.70;20.30;;;;;;;10.14;100.00;98720.41;67781;1279;1016491;-62
2023/02/17 13:14:43;;;;;;;48.60;21.40;;;;;;;10.09;100.00;98714.27;67774;1279;1016219;-62
2023/02/17 13:17:45;;;;;;;44.70;20.30;;;;;;;10.09;100.00;98711.60;67789;1279;1016523;-61
2023/02/17 13:20:48;;;;;;;;;;;;;;;10.02;100.00;98705.02;67757;1279;1016494;-61
2023/02/17 13:23:50;;;;;;;44.50;19.50;;;;;;;9.97;100.00;98699.73;67748;1279;1016661;-61
2023/02/17 13:26:53;;;;;;;43.40;19.80;;;;;;;10.09;100.00;98697.64;67792;1279;1016450;-61
2023/02/17 13:29:56;;;;;;;43.40;20.00;;;;;;;10.09;100.00;98691.71;67722;1279;1016164;-62
2023/02/17 13:32:58;;;;;;;44.70;19.70;;;;;;;10.03;100.00;98687.14;67758;1279;1018490;-62
2023/02/17 13:36:01;;;;;;;45.90;21.20;;;;;;;9.96;100.00;98685.66;67788;1279;1016298;-62
2023/02/17 13:39:03;;;;;;;45.60;20.70;;;;;;;9.91;100.00;98681.92;67784;1279;1016405;-61
2023/02/17 13:42:06;;;;;;;45.90;21.20;;;;;;;9.88;100.00;98683.00;67732;1279;1016273;-62
2023/02/17 13:45:08;;;;;;;46.50;19.90;;;;;;;9.81;100.00;98677.65;67752;1279;1017013;-62